DEVIC EDAZ-EDRY
Flight info
| Callsign | DEVIC |
|---|---|
| Flight time | 1h 42m |
| Altitude | 8000 |
| Route | BOLBO2N BOLBO DCT TAMEB DCT ABUKA |
| Aircraft | BT36/L-BDFGLORY/S |
Departure
| Time | 2026-05-04 18:21 |
|---|---|
| Airport | Schönhagen Airfield (EDAZ) |
Arrival
| Time | 2026-05-04 20:03 |
|---|---|
| Airport | Speyer Airfield (EDRY) |
| Time | Latitude | Longitude | Altitude | Speed | Heading |
|---|---|---|---|---|---|
| 2026-05-04 17:47 | 52.20426 | 13.15206 | 138 ft | 0 kts | 167° |
| 2026-05-04 18:02 | 52.20420 | 13.15209 | 137 ft | 5 kts | 166° |
| 2026-05-04 18:02 | 52.20372 | 13.15228 | 137 ft | 0 kts | 166° |
| 2026-05-04 18:02 | 52.20381 | 13.15248 | 137 ft | 10 kts | 4° |
| 2026-05-04 18:02 | 52.20433 | 13.15228 | 137 ft | 4 kts | 165° |
| 2026-05-04 18:03 | 52.20432 | 13.15228 | 137 ft | 0 kts | 158° |
| 2026-05-04 18:18 | 52.20414 | 13.15290 | 137 ft | 5 kts | 141° |
| 2026-05-04 18:18 | 52.20380 | 13.15304 | 137 ft | 7 kts | 175° |
| 2026-05-04 18:18 | 52.20344 | 13.15183 | 137 ft | 21 kts | 256° |
| 2026-05-04 18:19 | 52.20269 | 13.14972 | 126 ft | 0 kts | 165° |
| 2026-05-04 18:19 | 52.20254 | 13.14979 | 127 ft | 9 kts | 164° |
| 2026-05-04 18:20 | 52.20239 | 13.15034 | 132 ft | 0 kts | 75° |
| 2026-05-04 18:20 | 52.20242 | 13.15057 | 132 ft | 20 kts | 75° |
| 2026-05-04 18:20 | 52.20355 | 13.15778 | 140 ft | 105 kts | 74° |
| 2026-05-04 18:20 | 52.20557 | 13.17126 | 372 ft | 135 kts | 83° |
| 2026-05-04 18:21 | 52.20527 | 13.18715 | 683 ft | 146 kts | 92° |
| 2026-05-04 18:21 | 52.20473 | 13.20408 | 942 ft | 152 kts | 90° |
| 2026-05-04 18:21 | 52.20466 | 13.22121 | 1206 ft | 154 kts | 88° |
| 2026-05-04 18:21 | 52.20341 | 13.23876 | 1456 ft | 157 kts | 111° |
| 2026-05-04 18:22 | 52.19704 | 13.25311 | 1707 ft | 159 kts | 139° |
| 2026-05-04 18:22 | 52.18723 | 13.26125 | 1954 ft | 159 kts | 160° |
| 2026-05-04 18:22 | 52.17693 | 13.26779 | 2202 ft | 159 kts | 162° |
| 2026-05-04 18:22 | 52.16606 | 13.26859 | 2444 ft | 158 kts | 193° |
| 2026-05-04 18:23 | 52.15595 | 13.26243 | 2691 ft | 157 kts | 205° |
| 2026-05-04 18:23 | 52.14577 | 13.25553 | 2950 ft | 156 kts | 204° |
| 2026-05-04 18:23 | 52.13567 | 13.24989 | 3200 ft | 156 kts | 191° |
| 2026-05-04 18:23 | 52.12477 | 13.24743 | 3446 ft | 156 kts | 189° |
| 2026-05-04 18:24 | 52.11421 | 13.24461 | 3687 ft | 156 kts | 191° |
| 2026-05-04 18:24 | 52.10351 | 13.24150 | 3933 ft | 156 kts | 191° |
| 2026-05-04 18:24 | 52.09263 | 13.23832 | 4186 ft | 157 kts | 191° |
| 2026-05-04 18:24 | 52.08202 | 13.23518 | 4435 ft | 157 kts | 192° |
| 2026-05-04 18:25 | 52.07129 | 13.23201 | 4683 ft | 157 kts | 192° |
| 2026-05-04 18:25 | 52.06058 | 13.22884 | 4931 ft | 156 kts | 192° |
| 2026-05-04 18:25 | 52.04990 | 13.22569 | 5178 ft | 156 kts | 192° |
| 2026-05-04 18:25 | 52.03922 | 13.22256 | 5428 ft | 156 kts | 192° |
| 2026-05-04 18:26 | 52.02859 | 13.21942 | 5679 ft | 155 kts | 192° |
| 2026-05-04 18:26 | 52.01799 | 13.21630 | 5924 ft | 155 kts | 192° |
| 2026-05-04 18:26 | 52.00744 | 13.21320 | 6169 ft | 154 kts | 192° |
| 2026-05-04 18:26 | 51.99687 | 13.21009 | 6411 ft | 154 kts | 192° |
| 2026-05-04 18:27 | 51.98638 | 13.20701 | 6645 ft | 154 kts | 193° |
| 2026-05-04 18:27 | 51.97584 | 13.20392 | 6876 ft | 154 kts | 193° |
| 2026-05-04 18:27 | 51.96533 | 13.20083 | 7114 ft | 153 kts | 193° |
| 2026-05-04 18:27 | 51.95484 | 13.19775 | 7351 ft | 153 kts | 193° |
| 2026-05-04 18:28 | 51.94431 | 13.19467 | 7588 ft | 154 kts | 193° |
| 2026-05-04 18:28 | 51.93381 | 13.19159 | 7828 ft | 153 kts | 193° |
| 2026-05-04 18:28 | 51.92311 | 13.18843 | 7928 ft | 161 kts | 194° |
| 2026-05-04 18:28 | 51.91178 | 13.18506 | 7935 ft | 169 kts | 193° |
| 2026-05-04 18:29 | 51.90012 | 13.18166 | 7940 ft | 172 kts | 193° |
| 2026-05-04 18:29 | 51.88831 | 13.17823 | 7939 ft | 173 kts | 193° |
| 2026-05-04 18:29 | 51.87642 | 13.17477 | 7940 ft | 174 kts | 193° |
| 2026-05-04 18:29 | 51.86448 | 13.17129 | 7939 ft | 174 kts | 193° |
| 2026-05-04 18:30 | 51.84069 | 13.16434 | 7940 ft | 174 kts | 193° |
| 2026-05-04 18:30 | 51.82874 | 13.16085 | 7940 ft | 174 kts | 193° |
| 2026-05-04 18:30 | 51.81679 | 13.15737 | 7938 ft | 174 kts | 193° |
| 2026-05-04 18:31 | 51.80487 | 13.15382 | 7938 ft | 174 kts | 195° |
| 2026-05-04 18:31 | 51.79424 | 13.14533 | 7943 ft | 171 kts | 221° |
| 2026-05-04 18:31 | 51.78680 | 13.13067 | 7933 ft | 170 kts | 239° |
| 2026-05-04 18:31 | 51.78062 | 13.11454 | 7936 ft | 168 kts | 238° |
| 2026-05-04 18:32 | 51.77390 | 13.09922 | 7931 ft | 167 kts | 229° |
| 2026-05-04 18:32 | 51.76570 | 13.08588 | 7931 ft | 167 kts | 226° |
| 2026-05-04 18:32 | 51.75739 | 13.07272 | 7931 ft | 167 kts | 226° |
| 2026-05-04 18:32 | 51.74922 | 13.05976 | 7931 ft | 167 kts | 226° |
| 2026-05-04 18:33 | 51.74092 | 13.04663 | 7931 ft | 167 kts | 226° |
| 2026-05-04 18:33 | 51.73264 | 13.03351 | 7931 ft | 167 kts | 226° |
| 2026-05-04 18:33 | 51.72424 | 13.02022 | 7931 ft | 167 kts | 226° |
| 2026-05-04 18:33 | 51.71609 | 13.00728 | 7944 ft | 167 kts | 226° |
| 2026-05-04 18:34 | 51.70779 | 12.99414 | 7931 ft | 167 kts | 226° |
| 2026-05-04 18:34 | 51.69953 | 12.98106 | 7931 ft | 167 kts | 226° |
| 2026-05-04 18:34 | 51.69126 | 12.96795 | 7931 ft | 167 kts | 226° |
| 2026-05-04 18:34 | 51.68298 | 12.95482 | 7931 ft | 167 kts | 226° |
| 2026-05-04 18:35 | 51.67471 | 12.94174 | 7929 ft | 167 kts | 226° |
| 2026-05-04 18:35 | 51.66627 | 12.92896 | 7929 ft | 167 kts | 222° |
| 2026-05-04 18:35 | 51.65727 | 12.91704 | 7932 ft | 167 kts | 221° |
| 2026-05-04 18:35 | 51.64828 | 12.90524 | 7937 ft | 167 kts | 221° |
| 2026-05-04 18:36 | 51.63924 | 12.89339 | 7940 ft | 167 kts | 221° |
| 2026-05-04 18:36 | 51.63024 | 12.88160 | 7934 ft | 167 kts | 221° |
| 2026-05-04 18:36 | 51.62120 | 12.86977 | 7947 ft | 167 kts | 221° |
| 2026-05-04 18:36 | 51.61219 | 12.85796 | 7934 ft | 167 kts | 221° |
| 2026-05-04 18:37 | 51.60316 | 12.84613 | 7936 ft | 167 kts | 220° |
| 2026-05-04 18:37 | 51.59414 | 12.83434 | 7936 ft | 167 kts | 221° |
| 2026-05-04 18:37 | 51.58514 | 12.82253 | 7933 ft | 167 kts | 221° |
| 2026-05-04 18:37 | 51.57614 | 12.81071 | 7940 ft | 167 kts | 221° |
| 2026-05-04 18:38 | 51.56718 | 12.79885 | 7938 ft | 167 kts | 221° |
| 2026-05-04 18:38 | 51.55822 | 12.78698 | 7929 ft | 167 kts | 221° |
| 2026-05-04 18:38 | 51.54927 | 12.77512 | 7929 ft | 167 kts | 221° |
| 2026-05-04 18:38 | 51.54031 | 12.76327 | 7929 ft | 167 kts | 221° |
| 2026-05-04 18:39 | 51.53137 | 12.75143 | 7936 ft | 167 kts | 221° |
| 2026-05-04 18:39 | 51.52240 | 12.73955 | 7930 ft | 167 kts | 220° |
| 2026-05-04 18:39 | 51.51346 | 12.72772 | 7930 ft | 167 kts | 221° |
| 2026-05-04 18:39 | 51.50453 | 12.71591 | 7937 ft | 167 kts | 221° |
| 2026-05-04 18:40 | 51.49557 | 12.70407 | 7933 ft | 167 kts | 221° |
| 2026-05-04 18:40 | 51.48662 | 12.69223 | 7932 ft | 167 kts | 220° |
| 2026-05-04 18:40 | 51.47783 | 12.68061 | 7931 ft | 166 kts | 220° |
| 2026-05-04 18:40 | 51.46890 | 12.66882 | 7931 ft | 166 kts | 220° |
| 2026-05-04 18:41 | 51.45996 | 12.65702 | 7935 ft | 167 kts | 220° |
| 2026-05-04 18:41 | 51.45101 | 12.64519 | 7938 ft | 167 kts | 221° |
| 2026-05-04 18:41 | 51.44220 | 12.63357 | 7933 ft | 167 kts | 221° |
| 2026-05-04 18:41 | 51.43325 | 12.62176 | 7928 ft | 167 kts | 220° |
| 2026-05-04 18:42 | 51.42431 | 12.60995 | 7926 ft | 167 kts | 221° |
| 2026-05-04 18:42 | 51.41536 | 12.59816 | 7934 ft | 167 kts | 221° |
| 2026-05-04 18:42 | 51.40641 | 12.58635 | 7931 ft | 167 kts | 220° |
| 2026-05-04 18:42 | 51.39747 | 12.57456 | 7925 ft | 166 kts | 220° |
| 2026-05-04 18:43 | 51.38855 | 12.56279 | 7938 ft | 166 kts | 221° |
| 2026-05-04 18:43 | 51.37963 | 12.55102 | 7929 ft | 166 kts | 221° |
| 2026-05-04 18:43 | 51.37070 | 12.53923 | 7933 ft | 166 kts | 220° |
| 2026-05-04 18:43 | 51.36184 | 12.52736 | 7932 ft | 166 kts | 220° |
| 2026-05-04 18:44 | 51.35305 | 12.51549 | 7933 ft | 166 kts | 220° |
| 2026-05-04 18:44 | 51.35005 | 12.51140 | 7938 ft | 166 kts | 220° |
| 2026-05-04 18:44 | 51.33543 | 12.49143 | 7941 ft | 167 kts | 221° |
| 2026-05-04 18:44 | 51.32662 | 12.47940 | 7939 ft | 167 kts | 220° |
| 2026-05-04 18:45 | 51.31782 | 12.46737 | 7937 ft | 166 kts | 220° |
| 2026-05-04 18:45 | 51.30902 | 12.45535 | 7937 ft | 166 kts | 220° |
| 2026-05-04 18:45 | 51.30022 | 12.44334 | 7938 ft | 166 kts | 220° |
| 2026-05-04 18:45 | 51.29143 | 12.43132 | 7939 ft | 166 kts | 220° |
| 2026-05-04 18:46 | 51.28344 | 12.41800 | 7939 ft | 167 kts | 232° |
| 2026-05-04 18:46 | 51.27665 | 12.40297 | 7945 ft | 167 kts | 233° |
| 2026-05-04 18:46 | 51.26990 | 12.38791 | 7939 ft | 167 kts | 233° |
| 2026-05-04 18:46 | 51.26314 | 12.37282 | 7939 ft | 167 kts | 233° |
| 2026-05-04 18:47 | 51.25640 | 12.35776 | 7943 ft | 167 kts | 233° |
| 2026-05-04 18:47 | 51.24976 | 12.34293 | 7942 ft | 167 kts | 233° |
| 2026-05-04 18:47 | 51.24302 | 12.32787 | 7943 ft | 167 kts | 233° |
| 2026-05-04 18:47 | 51.23625 | 12.31277 | 7944 ft | 167 kts | 233° |
| 2026-05-04 18:48 | 51.22952 | 12.29775 | 7935 ft | 167 kts | 233° |
| 2026-05-04 18:48 | 51.22276 | 12.28266 | 7935 ft | 167 kts | 233° |
| 2026-05-04 18:48 | 51.21602 | 12.26763 | 7936 ft | 167 kts | 233° |
| 2026-05-04 18:48 | 51.20926 | 12.25258 | 7935 ft | 167 kts | 233° |
| 2026-05-04 18:49 | 51.20249 | 12.23751 | 7934 ft | 167 kts | 233° |
| 2026-05-04 18:49 | 51.19574 | 12.22247 | 7934 ft | 167 kts | 233° |
| 2026-05-04 18:49 | 51.18899 | 12.20749 | 7934 ft | 167 kts | 233° |
| 2026-05-04 18:49 | 51.18224 | 12.19246 | 7934 ft | 167 kts | 233° |
| 2026-05-04 18:50 | 51.17547 | 12.17741 | 7944 ft | 167 kts | 233° |
| 2026-05-04 18:50 | 51.16875 | 12.16233 | 7935 ft | 167 kts | 233° |
| 2026-05-04 18:50 | 51.16207 | 12.14727 | 7942 ft | 167 kts | 233° |
| 2026-05-04 18:50 | 51.15538 | 12.13216 | 7935 ft | 167 kts | 233° |
| 2026-05-04 18:51 | 51.14869 | 12.11707 | 7939 ft | 167 kts | 233° |
| 2026-05-04 18:51 | 51.14201 | 12.10199 | 7939 ft | 167 kts | 233° |
| 2026-05-04 18:51 | 51.13532 | 12.08690 | 7943 ft | 167 kts | 233° |
| 2026-05-04 18:51 | 51.12863 | 12.07183 | 7939 ft | 167 kts | 233° |
| 2026-05-04 18:52 | 51.12194 | 12.05676 | 7947 ft | 167 kts | 233° |
| 2026-05-04 18:52 | 51.11751 | 12.04678 | 7937 ft | 167 kts | 233° |
| 2026-05-04 18:52 | 51.11082 | 12.03170 | 7937 ft | 167 kts | 233° |
| 2026-05-04 18:52 | 51.10413 | 12.01663 | 7948 ft | 167 kts | 233° |
| 2026-05-04 18:53 | 51.09743 | 12.00158 | 7940 ft | 167 kts | 233° |
| 2026-05-04 18:53 | 51.09106 | 11.98723 | 7940 ft | 166 kts | 233° |
| 2026-05-04 18:53 | 51.08222 | 11.96732 | 7939 ft | 166 kts | 233° |
| 2026-05-04 18:53 | 51.07770 | 11.95713 | 7939 ft | 166 kts | 233° |
| 2026-05-04 18:54 | 51.06882 | 11.93713 | 7944 ft | 169 kts | 233° |
| 2026-05-04 18:54 | 51.06422 | 11.92679 | 7943 ft | 169 kts | 233° |
| 2026-05-04 18:54 | 51.05742 | 11.91151 | 7945 ft | 169 kts | 233° |
| 2026-05-04 18:54 | 51.05067 | 11.89626 | 7953 ft | 170 kts | 233° |
| 2026-05-04 18:55 | 51.04521 | 11.87944 | 7949 ft | 172 kts | 244° |
| 2026-05-04 18:55 | 51.03605 | 11.84423 | 7953 ft | 172 kts | 244° |
| 2026-05-04 18:55 | 51.03148 | 11.82661 | 7960 ft | 172 kts | 244° |
| 2026-05-04 18:56 | 51.02692 | 11.80904 | 7944 ft | 172 kts | 244° |
| 2026-05-04 18:56 | 51.02235 | 11.79142 | 7944 ft | 172 kts | 244° |
| 2026-05-04 18:56 | 51.01780 | 11.77380 | 7954 ft | 172 kts | 244° |
| 2026-05-04 18:56 | 51.01323 | 11.75619 | 7950 ft | 173 kts | 244° |
| 2026-05-04 18:57 | 51.00870 | 11.73872 | 7962 ft | 174 kts | 244° |
| 2026-05-04 18:57 | 51.00404 | 11.72074 | 7959 ft | 174 kts | 244° |
| 2026-05-04 18:57 | 50.99949 | 11.70323 | 7956 ft | 174 kts | 244° |
| 2026-05-04 18:57 | 50.99491 | 11.68547 | 7957 ft | 173 kts | 244° |
| 2026-05-04 18:58 | 50.99033 | 11.66783 | 7947 ft | 173 kts | 244° |
| 2026-05-04 18:58 | 50.98568 | 11.65007 | 7956 ft | 175 kts | 244° |
| 2026-05-04 18:58 | 50.98092 | 11.63214 | 7949 ft | 177 kts | 244° |
| 2026-05-04 18:58 | 50.97614 | 11.61424 | 7947 ft | 176 kts | 244° |
| 2026-05-04 18:59 | 50.97135 | 11.59633 | 7946 ft | 176 kts | 244° |
| 2026-05-04 18:59 | 50.96653 | 11.57840 | 7952 ft | 177 kts | 244° |
| 2026-05-04 18:59 | 50.96172 | 11.56050 | 7950 ft | 176 kts | 244° |
| 2026-05-04 18:59 | 50.95690 | 11.54262 | 7952 ft | 177 kts | 244° |
| 2026-05-04 19:00 | 50.95206 | 11.52468 | 7951 ft | 177 kts | 244° |
| 2026-05-04 19:00 | 50.94724 | 11.50673 | 7956 ft | 177 kts | 244° |
| 2026-05-04 19:00 | 50.94242 | 11.48887 | 7949 ft | 176 kts | 244° |
| 2026-05-04 19:00 | 50.93759 | 11.47099 | 7953 ft | 176 kts | 244° |
| 2026-05-04 19:01 | 50.93277 | 11.45311 | 7956 ft | 176 kts | 245° |
| 2026-05-04 19:01 | 50.92796 | 11.43530 | 7954 ft | 176 kts | 244° |
| 2026-05-04 19:01 | 50.92314 | 11.41745 | 7951 ft | 176 kts | 244° |
| 2026-05-04 19:01 | 50.91831 | 11.39959 | 7947 ft | 176 kts | 244° |
| 2026-05-04 19:02 | 50.91351 | 11.38179 | 7952 ft | 176 kts | 244° |
| 2026-05-04 19:02 | 50.90870 | 11.36397 | 7949 ft | 176 kts | 244° |
| 2026-05-04 19:02 | 50.90396 | 11.34623 | 7953 ft | 174 kts | 244° |
| 2026-05-04 19:02 | 50.89935 | 11.32853 | 7953 ft | 172 kts | 244° |
| 2026-05-04 19:03 | 50.89417 | 11.31162 | 7963 ft | 170 kts | 239° |
| 2026-05-04 19:03 | 50.88845 | 11.29523 | 7955 ft | 170 kts | 238° |
| 2026-05-04 19:03 | 50.88288 | 11.27934 | 7959 ft | 169 kts | 238° |
| 2026-05-04 19:03 | 50.87688 | 11.26276 | 7958 ft | 169 kts | 237° |
| 2026-05-04 19:04 | 50.87100 | 11.24662 | 7971 ft | 169 kts | 237° |
| 2026-05-04 19:04 | 50.86514 | 11.23051 | 7975 ft | 169 kts | 237° |
| 2026-05-04 19:04 | 50.85925 | 11.21432 | 7971 ft | 170 kts | 237° |
| 2026-05-04 19:04 | 50.85333 | 11.19809 | 7974 ft | 170 kts | 237° |
| 2026-05-04 19:05 | 50.84743 | 11.18197 | 7971 ft | 170 kts | 237° |
| 2026-05-04 19:05 | 50.84151 | 11.16573 | 7971 ft | 170 kts | 237° |
| 2026-05-04 19:05 | 50.83557 | 11.14950 | 7977 ft | 171 kts | 237° |
| 2026-05-04 19:05 | 50.82965 | 11.13331 | 7979 ft | 170 kts | 237° |
| 2026-05-04 19:06 | 50.82375 | 11.11718 | 7973 ft | 170 kts | 237° |
| 2026-05-04 19:06 | 50.81783 | 11.10100 | 7972 ft | 169 kts | 237° |
| 2026-05-04 19:06 | 50.81205 | 11.08516 | 7983 ft | 169 kts | 237° |
| 2026-05-04 19:06 | 50.80612 | 11.06909 | 7973 ft | 170 kts | 237° |
| 2026-05-04 19:07 | 50.80013 | 11.05298 | 7971 ft | 171 kts | 237° |
| 2026-05-04 19:07 | 50.79405 | 11.03655 | 7982 ft | 171 kts | 237° |
| 2026-05-04 19:07 | 50.78872 | 11.02020 | 7975 ft | 171 kts | 249° |
| 2026-05-04 19:07 | 50.78565 | 11.00174 | 7969 ft | 172 kts | 253° |
| 2026-05-04 19:08 | 50.78282 | 10.98345 | 7971 ft | 171 kts | 253° |
| 2026-05-04 19:08 | 50.78004 | 10.96541 | 7968 ft | 171 kts | 253° |
| 2026-05-04 19:08 | 50.77719 | 10.94689 | 7972 ft | 172 kts | 253° |
| 2026-05-04 19:08 | 50.77436 | 10.92852 | 7975 ft | 172 kts | 253° |
| 2026-05-04 19:09 | 50.77156 | 10.91039 | 7971 ft | 172 kts | 253° |
| 2026-05-04 19:09 | 50.76875 | 10.89208 | 7975 ft | 172 kts | 253° |
| 2026-05-04 19:09 | 50.76584 | 10.87346 | 7978 ft | 176 kts | 253° |
| 2026-05-04 19:09 | 50.76293 | 10.85465 | 7973 ft | 177 kts | 253° |
| 2026-05-04 19:10 | 50.76000 | 10.83579 | 7972 ft | 177 kts | 253° |
| 2026-05-04 19:10 | 50.75706 | 10.81686 | 7984 ft | 177 kts | 253° |
| 2026-05-04 19:10 | 50.75417 | 10.79793 | 7982 ft | 177 kts | 253° |
| 2026-05-04 19:10 | 50.75130 | 10.77909 | 7981 ft | 177 kts | 253° |
| 2026-05-04 19:11 | 50.74847 | 10.76028 | 7973 ft | 176 kts | 253° |
| 2026-05-04 19:11 | 50.74560 | 10.74149 | 7973 ft | 175 kts | 253° |
| 2026-05-04 19:11 | 50.74280 | 10.72304 | 7977 ft | 172 kts | 253° |
| 2026-05-04 19:11 | 50.74004 | 10.70478 | 7971 ft | 170 kts | 253° |
| 2026-05-04 19:12 | 50.73729 | 10.68665 | 7969 ft | 170 kts | 253° |
| 2026-05-04 19:12 | 50.73177 | 10.65049 | 7966 ft | 169 kts | 253° |
| 2026-05-04 19:12 | 50.72900 | 10.63244 | 7976 ft | 169 kts | 253° |
| 2026-05-04 19:13 | 50.72619 | 10.61437 | 7974 ft | 170 kts | 251° |
| 2026-05-04 19:13 | 50.72193 | 10.59705 | 7976 ft | 169 kts | 240° |
| 2026-05-04 19:13 | 50.71492 | 10.58249 | 7975 ft | 166 kts | 226° |
| 2026-05-04 19:13 | 50.70684 | 10.56946 | 7962 ft | 167 kts | 224° |
| 2026-05-04 19:14 | 50.69862 | 10.55661 | 7966 ft | 166 kts | 224° |
| 2026-05-04 19:14 | 50.69045 | 10.54375 | 7964 ft | 166 kts | 224° |
| 2026-05-04 19:14 | 50.68231 | 10.53090 | 7964 ft | 166 kts | 224° |
| 2026-05-04 19:14 | 50.67418 | 10.51804 | 7959 ft | 165 kts | 224° |
| 2026-05-04 19:15 | 50.66606 | 10.50524 | 7961 ft | 165 kts | 224° |
| 2026-05-04 19:15 | 50.65792 | 10.49240 | 7960 ft | 166 kts | 224° |
| 2026-05-04 19:15 | 50.64978 | 10.47954 | 7958 ft | 165 kts | 224° |
| 2026-05-04 19:15 | 50.64167 | 10.46677 | 7965 ft | 166 kts | 224° |
| 2026-05-04 19:16 | 50.63351 | 10.45391 | 7962 ft | 165 kts | 224° |
| 2026-05-04 19:16 | 50.62539 | 10.44112 | 7961 ft | 166 kts | 224° |
| 2026-05-04 19:16 | 50.61723 | 10.42827 | 7961 ft | 166 kts | 224° |
| 2026-05-04 19:16 | 50.60909 | 10.41547 | 7962 ft | 166 kts | 224° |
| 2026-05-04 19:17 | 50.60091 | 10.40262 | 7962 ft | 166 kts | 224° |
| 2026-05-04 19:17 | 50.59275 | 10.38979 | 7959 ft | 166 kts | 224° |
| 2026-05-04 19:17 | 50.58461 | 10.37700 | 7957 ft | 165 kts | 224° |
| 2026-05-04 19:17 | 50.57625 | 10.36446 | 7950 ft | 166 kts | 218° |
| 2026-05-04 19:18 | 50.56745 | 10.35272 | 7945 ft | 166 kts | 221° |
| 2026-05-04 19:18 | 50.55906 | 10.33996 | 7916 ft | 168 kts | 223° |
| 2026-05-04 19:18 | 50.55109 | 10.32677 | 7877 ft | 169 kts | 224° |
| 2026-05-04 19:18 | 50.54254 | 10.31432 | 7904 ft | 166 kts | 221° |
| 2026-05-04 19:19 | 50.53436 | 10.30152 | 7940 ft | 166 kts | 225° |
| 2026-05-04 19:19 | 50.52636 | 10.28827 | 7931 ft | 167 kts | 225° |
| 2026-05-04 19:19 | 50.51841 | 10.27487 | 7930 ft | 168 kts | 227° |
| 2026-05-04 19:19 | 50.51071 | 10.26112 | 7919 ft | 168 kts | 227° |
| 2026-05-04 19:20 | 50.50313 | 10.24701 | 7902 ft | 167 kts | 227° |
| 2026-05-04 19:20 | 50.49541 | 10.23331 | 7874 ft | 169 kts | 227° |
| 2026-05-04 19:20 | 50.48767 | 10.21946 | 7899 ft | 166 kts | 227° |
| 2026-05-04 19:20 | 50.48004 | 10.20587 | 7925 ft | 166 kts | 227° |
| 2026-05-04 19:21 | 50.47258 | 10.19213 | 7997 ft | 165 kts | 229° |
| 2026-05-04 19:21 | 50.46523 | 10.17808 | 7945 ft | 168 kts | 229° |
| 2026-05-04 19:21 | 50.45771 | 10.16399 | 7916 ft | 168 kts | 228° |
| 2026-05-04 19:21 | 50.45006 | 10.15023 | 7908 ft | 168 kts | 227° |
| 2026-05-04 19:22 | 50.44194 | 10.13661 | 7766 ft | 171 kts | 226° |
| 2026-05-04 19:22 | 50.43414 | 10.12311 | 7879 ft | 164 kts | 226° |
| 2026-05-04 19:22 | 50.42659 | 10.10914 | 7805 ft | 169 kts | 229° |
| 2026-05-04 19:22 | 50.41922 | 10.09445 | 7703 ft | 173 kts | 231° |
| 2026-05-04 19:23 | 50.41211 | 10.07935 | 7705 ft | 171 kts | 233° |
| 2026-05-04 19:23 | 50.40526 | 10.06420 | 7711 ft | 169 kts | 229° |
| 2026-05-04 19:23 | 50.39753 | 10.05041 | 7705 ft | 169 kts | 226° |
| 2026-05-04 19:23 | 50.38950 | 10.03668 | 7620 ft | 172 kts | 226° |
| 2026-05-04 19:24 | 50.38156 | 10.02320 | 7526 ft | 163 kts | 226° |
| 2026-05-04 19:24 | 50.37417 | 10.01033 | 7465 ft | 156 kts | 227° |
| 2026-05-04 19:24 | 50.36713 | 9.99750 | 7458 ft | 154 kts | 228° |
| 2026-05-04 19:24 | 50.36019 | 9.98495 | 7461 ft | 151 kts | 226° |
| 2026-05-04 19:25 | 50.35305 | 9.97287 | 7442 ft | 152 kts | 224° |
| 2026-05-04 19:25 | 50.34588 | 9.96080 | 7447 ft | 151 kts | 226° |
| 2026-05-04 19:25 | 50.33870 | 9.94836 | 7551 ft | 162 kts | 226° |
| 2026-05-04 19:25 | 50.33040 | 9.93547 | 7788 ft | 172 kts | 224° |
| 2026-05-04 19:26 | 50.32199 | 9.92193 | 7959 ft | 167 kts | 225° |
| 2026-05-04 19:26 | 50.31444 | 9.90928 | 7938 ft | 157 kts | 226° |
| 2026-05-04 19:26 | 50.30712 | 9.89706 | 7928 ft | 152 kts | 225° |
| 2026-05-04 19:26 | 50.29989 | 9.88501 | 7925 ft | 151 kts | 225° |
| 2026-05-04 19:27 | 50.29276 | 9.87300 | 7909 ft | 150 kts | 225° |
| 2026-05-04 19:27 | 50.28531 | 9.86170 | 7917 ft | 149 kts | 221° |
| 2026-05-04 19:27 | 50.27773 | 9.85069 | 7921 ft | 149 kts | 223° |
| 2026-05-04 19:27 | 50.27046 | 9.83930 | 7942 ft | 148 kts | 224° |
| 2026-05-04 19:28 | 50.26325 | 9.82758 | 7887 ft | 150 kts | 226° |
| 2026-05-04 19:28 | 50.25596 | 9.81600 | 7881 ft | 149 kts | 221° |
| 2026-05-04 19:28 | 50.24841 | 9.80509 | 7917 ft | 147 kts | 223° |
| 2026-05-04 19:28 | 50.24119 | 9.79371 | 7928 ft | 148 kts | 224° |
| 2026-05-04 19:29 | 50.23413 | 9.78192 | 7928 ft | 148 kts | 227° |
| 2026-05-04 19:29 | 50.22694 | 9.77063 | 7938 ft | 146 kts | 224° |
| 2026-05-04 19:29 | 50.21990 | 9.75926 | 7948 ft | 146 kts | 225° |
| 2026-05-04 19:29 | 50.21265 | 9.74827 | 7960 ft | 145 kts | 223° |
| 2026-05-04 19:30 | 50.20546 | 9.73721 | 7976 ft | 146 kts | 224° |
| 2026-05-04 19:30 | 50.19836 | 9.72592 | 7978 ft | 146 kts | 224° |
| 2026-05-04 19:30 | 50.19115 | 9.71482 | 7961 ft | 146 kts | 224° |
| 2026-05-04 19:30 | 50.18417 | 9.70322 | 7927 ft | 148 kts | 227° |
| 2026-05-04 19:31 | 50.17736 | 9.69133 | 7945 ft | 145 kts | 223° |
| 2026-05-04 19:31 | 50.16985 | 9.68077 | 7940 ft | 145 kts | 220° |
| 2026-05-04 19:31 | 50.16221 | 9.67037 | 7953 ft | 146 kts | 221° |
| 2026-05-04 19:31 | 50.15474 | 9.65972 | 7965 ft | 146 kts | 222° |
| 2026-05-04 19:32 | 50.14727 | 9.64880 | 7952 ft | 147 kts | 222° |
| 2026-05-04 19:32 | 50.14003 | 9.63764 | 7957 ft | 146 kts | 224° |
| 2026-05-04 19:32 | 50.13320 | 9.62599 | 7987 ft | 146 kts | 228° |
| 2026-05-04 19:32 | 50.12616 | 9.61456 | 7998 ft | 146 kts | 221° |
| 2026-05-04 19:33 | 50.11854 | 9.60396 | 7994 ft | 147 kts | 220° |
| 2026-05-04 19:33 | 50.11085 | 9.59352 | 7976 ft | 147 kts | 219° |
| 2026-05-04 19:33 | 50.10334 | 9.58248 | 7942 ft | 149 kts | 224° |
| 2026-05-04 19:33 | 50.09692 | 9.57161 | 7877 ft | 151 kts | 226° |
| 2026-05-04 19:34 | 50.08986 | 9.55939 | 7895 ft | 148 kts | 223° |
| 2026-05-04 19:34 | 50.08178 | 9.55025 | 7926 ft | 146 kts | 211° |
| 2026-05-04 19:34 | 50.07367 | 9.54063 | 7912 ft | 148 kts | 223° |
| 2026-05-04 19:34 | 50.06686 | 9.52858 | 7908 ft | 148 kts | 229° |
| 2026-05-04 19:35 | 50.06046 | 9.51613 | 7951 ft | 147 kts | 226° |
| 2026-05-04 19:35 | 50.05300 | 9.50557 | 8000 ft | 145 kts | 215° |
| 2026-05-04 19:35 | 50.04419 | 9.49778 | 7984 ft | 147 kts | 206° |
| 2026-05-04 19:35 | 50.03484 | 9.49083 | 7938 ft | 150 kts | 206° |
| 2026-05-04 19:36 | 50.02580 | 9.48273 | 7837 ft | 151 kts | 216° |
| 2026-05-04 19:36 | 50.01881 | 9.47094 | 7504 ft | 149 kts | 237° |
| 2026-05-04 19:36 | 50.01257 | 9.45763 | 7259 ft | 154 kts | 227° |
| 2026-05-04 19:36 | 50.00506 | 9.44565 | 7086 ft | 155 kts | 222° |
| 2026-05-04 19:37 | 49.99726 | 9.43429 | 6988 ft | 153 kts | 222° |
| 2026-05-04 19:37 | 49.98957 | 9.42287 | 6877 ft | 153 kts | 223° |
| 2026-05-04 19:37 | 49.98211 | 9.41146 | 6846 ft | 149 kts | 224° |
| 2026-05-04 19:37 | 49.97486 | 9.39978 | 6744 ft | 152 kts | 225° |
| 2026-05-04 19:38 | 49.96762 | 9.38792 | 6701 ft | 150 kts | 225° |
| 2026-05-04 19:38 | 49.96084 | 9.37579 | 6679 ft | 148 kts | 230° |
| 2026-05-04 19:38 | 49.95396 | 9.36406 | 6696 ft | 144 kts | 221° |
| 2026-05-04 19:38 | 49.94638 | 9.35383 | 6685 ft | 146 kts | 220° |
| 2026-05-04 19:39 | 49.93863 | 9.34351 | 6642 ft | 147 kts | 217° |
| 2026-05-04 19:39 | 49.93050 | 9.33367 | 6529 ft | 151 kts | 217° |
| 2026-05-04 19:39 | 49.92230 | 9.32348 | 6473 ft | 149 kts | 219° |
| 2026-05-04 19:39 | 49.91434 | 9.31302 | 6402 ft | 148 kts | 219° |
| 2026-05-04 19:40 | 49.90649 | 9.30289 | 6404 ft | 148 kts | 218° |
| 2026-05-04 19:40 | 49.89853 | 9.29258 | 6328 ft | 150 kts | 220° |
| 2026-05-04 19:40 | 49.89089 | 9.28162 | 6302 ft | 149 kts | 222° |
| 2026-05-04 19:40 | 49.88370 | 9.27015 | 6274 ft | 148 kts | 226° |
| 2026-05-04 19:41 | 49.87713 | 9.25766 | 6212 ft | 151 kts | 231° |
| 2026-05-04 19:41 | 49.87113 | 9.24432 | 6162 ft | 150 kts | 232° |
| 2026-05-04 19:41 | 49.86485 | 9.23145 | 6128 ft | 150 kts | 229° |
| 2026-05-04 19:41 | 49.85815 | 9.21904 | 6090 ft | 150 kts | 227° |
| 2026-05-04 19:42 | 49.85149 | 9.20698 | 6067 ft | 149 kts | 229° |
| 2026-05-04 19:42 | 49.84501 | 9.19427 | 5997 ft | 152 kts | 232° |
| 2026-05-04 19:42 | 49.83785 | 9.18249 | 5946 ft | 150 kts | 212° |
| 2026-05-04 19:42 | 49.82810 | 9.17678 | 5871 ft | 151 kts | 193° |
| 2026-05-04 19:43 | 49.81803 | 9.17254 | 5849 ft | 150 kts | 198° |
| 2026-05-04 19:43 | 49.80827 | 9.16658 | 5794 ft | 151 kts | 205° |
| 2026-05-04 19:43 | 49.79876 | 9.15999 | 5788 ft | 149 kts | 200° |
| 2026-05-04 19:43 | 49.78886 | 9.15520 | 5747 ft | 150 kts | 196° |
| 2026-05-04 19:44 | 49.77871 | 9.15053 | 5636 ft | 153 kts | 197° |
| 2026-05-04 19:44 | 49.76851 | 9.14545 | 5515 ft | 154 kts | 198° |
| 2026-05-04 19:44 | 49.75861 | 9.13988 | 5526 ft | 150 kts | 201° |
| 2026-05-04 19:44 | 49.74913 | 9.13323 | 5503 ft | 150 kts | 207° |
| 2026-05-04 19:45 | 49.74013 | 9.12515 | 5488 ft | 151 kts | 210° |
| 2026-05-04 19:45 | 49.73120 | 9.11630 | 5431 ft | 152 kts | 214° |
| 2026-05-04 19:45 | 49.72273 | 9.10665 | 5421 ft | 151 kts | 217° |
| 2026-05-04 19:45 | 49.71477 | 9.09589 | 5384 ft | 152 kts | 220° |
| 2026-05-04 19:46 | 49.70711 | 9.08475 | 5391 ft | 151 kts | 223° |
| 2026-05-04 19:46 | 49.69999 | 9.07274 | 5339 ft | 153 kts | 226° |
| 2026-05-04 19:46 | 49.69275 | 9.06081 | 5315 ft | 152 kts | 225° |
| 2026-05-04 19:46 | 49.68555 | 9.04886 | 5286 ft | 152 kts | 226° |
| 2026-05-04 19:47 | 49.67841 | 9.03676 | 5261 ft | 153 kts | 226° |
| 2026-05-04 19:47 | 49.67145 | 9.02459 | 5281 ft | 150 kts | 227° |
| 2026-05-04 19:47 | 49.66443 | 9.01263 | 5253 ft | 151 kts | 226° |
| 2026-05-04 19:47 | 49.65738 | 9.00044 | 5156 ft | 154 kts | 227° |
| 2026-05-04 19:48 | 49.65060 | 8.98780 | 5134 ft | 152 kts | 229° |
| 2026-05-04 19:48 | 49.64399 | 8.97493 | 5095 ft | 153 kts | 230° |
| 2026-05-04 19:48 | 49.63745 | 8.96199 | 5033 ft | 154 kts | 230° |
| 2026-05-04 19:48 | 49.63083 | 8.94913 | 5028 ft | 152 kts | 229° |
| 2026-05-04 19:49 | 49.62434 | 8.93638 | 5024 ft | 151 kts | 230° |
| 2026-05-04 19:49 | 49.61788 | 8.92361 | 5015 ft | 151 kts | 230° |
| 2026-05-04 19:49 | 49.61132 | 8.91107 | 5035 ft | 149 kts | 229° |
| 2026-05-04 19:49 | 49.60495 | 8.89845 | 5038 ft | 149 kts | 230° |
| 2026-05-04 19:50 | 49.59843 | 8.88582 | 5002 ft | 151 kts | 229° |
| 2026-05-04 19:50 | 49.59171 | 8.87302 | 4882 ft | 156 kts | 229° |
| 2026-05-04 19:50 | 49.58486 | 8.85996 | 4760 ft | 157 kts | 229° |
| 2026-05-04 19:50 | 49.57785 | 8.84691 | 4613 ft | 159 kts | 228° |
| 2026-05-04 19:51 | 49.57059 | 8.83406 | 4521 ft | 157 kts | 227° |
| 2026-05-04 19:51 | 49.56338 | 8.82165 | 4497 ft | 154 kts | 227° |
| 2026-05-04 19:51 | 49.55633 | 8.80926 | 4493 ft | 153 kts | 227° |
| 2026-05-04 19:51 | 49.54923 | 8.79715 | 4487 ft | 152 kts | 226° |
| 2026-05-04 19:52 | 49.54205 | 8.78517 | 4478 ft | 152 kts | 226° |
| 2026-05-04 19:52 | 49.53472 | 8.77329 | 4445 ft | 153 kts | 225° |
| 2026-05-04 19:52 | 49.52740 | 8.76135 | 4400 ft | 155 kts | 226° |
| 2026-05-04 19:52 | 49.52020 | 8.74914 | 4378 ft | 152 kts | 227° |
| 2026-05-04 19:53 | 49.51558 | 8.74099 | 4376 ft | 152 kts | 228° |
| 2026-05-04 19:53 | 49.50870 | 8.72850 | 4336 ft | 154 kts | 227° |
| 2026-05-04 19:53 | 49.50142 | 8.71649 | 4312 ft | 153 kts | 226° |
| 2026-05-04 19:53 | 49.49251 | 8.70792 | 4204 ft | 155 kts | 198° |
| 2026-05-04 19:54 | 49.48223 | 8.70275 | 4141 ft | 155 kts | 198° |
| 2026-05-04 19:54 | 49.47210 | 8.69728 | 4111 ft | 153 kts | 200° |
| 2026-05-04 19:54 | 49.46216 | 8.69112 | 4016 ft | 156 kts | 202° |
| 2026-05-04 19:54 | 49.45220 | 8.68449 | 3939 ft | 157 kts | 205° |
| 2026-05-04 19:55 | 49.44226 | 8.67732 | 3818 ft | 159 kts | 205° |
| 2026-05-04 19:55 | 49.43220 | 8.67002 | 3679 ft | 160 kts | 206° |
| 2026-05-04 19:55 | 49.42237 | 8.66241 | 3603 ft | 159 kts | 208° |
| 2026-05-04 19:55 | 49.41266 | 8.65411 | 3430 ft | 161 kts | 210° |
| 2026-05-04 19:56 | 49.40274 | 8.64533 | 3151 ft | 166 kts | 209° |
| 2026-05-04 19:56 | 49.39273 | 8.63636 | 2927 ft | 166 kts | 213° |
| 2026-05-04 19:56 | 49.38322 | 8.62653 | 2762 ft | 165 kts | 219° |
| 2026-05-04 19:56 | 49.37697 | 8.61254 | 2636 ft | 160 kts | 258° |
| 2026-05-04 19:57 | 49.37514 | 8.59543 | 2407 ft | 163 kts | 255° |
| 2026-05-04 19:57 | 49.37040 | 8.57978 | 2332 ft | 160 kts | 245° |
| 2026-05-04 19:57 | 49.36553 | 8.56453 | 2270 ft | 159 kts | 246° |
| 2026-05-04 19:57 | 49.36091 | 8.54914 | 2194 ft | 158 kts | 248° |
| 2026-05-04 19:58 | 49.35640 | 8.53358 | 2073 ft | 159 kts | 250° |
| 2026-05-04 19:58 | 49.35185 | 8.51802 | 1961 ft | 160 kts | 247° |
| 2026-05-04 19:58 | 49.34717 | 8.50269 | 1918 ft | 157 kts | 247° |
| 2026-05-04 19:58 | 49.34280 | 8.48777 | 1880 ft | 142 kts | 249° |
| 2026-05-04 19:59 | 49.33739 | 8.47440 | 1683 ft | 159 kts | 227° |
| 2026-05-04 19:59 | 49.32733 | 8.46672 | 1389 ft | 168 kts | 187° |
| 2026-05-04 19:59 | 49.31741 | 8.47076 | 1251 ft | 133 kts | 149° |
| 2026-05-04 19:59 | 49.31028 | 8.47687 | 1162 ft | 104 kts | 149° |
| 2026-05-04 20:00 | 49.30424 | 8.48438 | 1015 ft | 115 kts | 138° |
| 2026-05-04 20:00 | 49.29736 | 8.49024 | 933 ft | 115 kts | 172° |
| 2026-05-04 20:00 | 49.28984 | 8.48784 | 840 ft | 111 kts | 214° |
| 2026-05-04 20:00 | 49.28651 | 8.47825 | 866 ft | 102 kts | 272° |
| 2026-05-04 20:01 | 49.28686 | 8.46675 | 903 ft | 114 kts | 273° |
| 2026-05-04 20:01 | 49.28765 | 8.45430 | 944 ft | 119 kts | 292° |
| 2026-05-04 20:01 | 49.29293 | 8.44471 | 996 ft | 117 kts | 331° |
| 2026-05-04 20:01 | 49.30018 | 8.44742 | 1058 ft | 120 kts | 65° |
| 2026-05-04 20:02 | 49.30286 | 8.46015 | 1016 ft | 125 kts | 82° |
| 2026-05-04 20:02 | 49.29871 | 8.47163 | 941 ft | 133 kts | 149° |
| 2026-05-04 20:02 | 49.29559 | 8.46543 | 762 ft | 115 kts | 279° |
| 2026-05-04 20:02 | 49.29721 | 8.45516 | 424 ft | 95 kts | 323° |
| 2026-05-04 20:03 | 49.30286 | 8.45253 | 324 ft | 71 kts | 343° |
| 2026-05-04 20:03 | 49.30654 | 8.45105 | 326 ft | 25 kts | 344° |
| 2026-05-04 20:03 | 49.30792 | 8.45048 | 328 ft | 27 kts | 343° |
| 2026-05-04 20:03 | 49.30917 | 8.44977 | 327 ft | 12 kts | 271° |
| 2026-05-04 20:04 | 49.30877 | 8.44882 | 327 ft | 10 kts | 165° |
| 2026-05-04 20:04 | 49.30837 | 8.44902 | 326 ft | 5 kts | 186° |
| 2026-05-04 20:04 | 49.30828 | 8.44883 | 326 ft | 0 kts | 255° |